Time;durP1;ratioP1;P1;durP2;ratioP2;P2;SDS_P1;SDS_P2;PMS_P1;PMS_P2;Temp;Humidity;BMP_temperature;BMP_pressure;BME280_temperature;BME280_humidity;BME280_pressure;Samples;Min_cycle;Max_cycle;Signal;HPM_P1;HPM_P2
2022/11/01 09:05:24;;;;;;;7.40;2.78;;;;;;;15.13;75.48;96848.66;2102339;27;20576;-69
2022/11/01 09:06:26;;;;;;;13.50;7.38;;;;;;;15.60;75.27;96883.56;2097145;28;20290;-69
2022/11/01 09:07:36;;;;;;;9.32;3.78;;;;;;;15.76;74.66;96871.16;2092436;28;20230;-69
2022/11/01 09:08:38;;;;;;;10.85;5.65;;;;;;;15.96;73.38;96892.78;2089335;28;20232;-69
2022/11/01 09:09:40;;;;;;;3.08;1.60;;;;;;;16.01;73.42;96885.47;2088561;28;20193;-70
2022/11/01 09:10:41;;;;;;;3.28;1.00;;;;;;;16.04;72.31;96880.00;2088538;28;20196;-69
2022/11/01 09:11:43;;;;;;;4.72;1.75;;;;;;;16.13;72.86;96873.28;2088795;28;20196;-69
2022/11/01 09:12:44;;;;;;;4.70;1.08;;;;;;;17.25;69.64;96867.72;2106363;28;20689;-69
2022/11/01 09:13:46;;;;;;;8.07;1.05;;;;;;;17.84;66.20;96869.00;2095062;28;20227;-69
2022/11/01 09:14:47;;;;;;;2.55;0.90;;;;;;;18.26;64.58;96866.06;2087059;28;20195;-71
2022/11/01 09:15:49;;;;;;;3.25;0.95;;;;;;;18.39;64.08;96887.16;2096785;28;20249;-71
2022/11/01 09:16:51;;;;;;;4.63;1.98;;;;;;;18.38;64.33;96883.66;2096500;28;20249;-71
2022/11/01 09:17:53;;;;;;;5.20;1.23;;;;;;;18.91;63.28;96882.50;2088566;28;20223;-71
2022/11/01 09:37:00;;;;;;;4.93;2.45;;;;;;;20.37;57.91;96877.47;2087235;28;20185;-67
2022/11/01 09:38:02;;;;;;;13.50;4.57;;;;;;;20.73;57.23;96871.97;2085745;28;20990;-68
2022/11/01 09:39:04;;;;;;;4.88;2.20;;;;;;;20.12;57.00;96873.28;2086581;28;20228;-70
2022/11/01 09:40:06;;;;;;;5.60;1.95;;;;;;;19.51;60.00;96877.94;2086816;28;20200;-67
2022/11/01 09:41:13;;;;;;;5.47;1.13;;;;;;;19.32;59.86;96885.63;2086818;28;20224;-67
2022/11/01 09:42:31;;;;;;;3.75;1.23;;;;;;;18.97;60.57;96870.59;2087734;28;20247;-65
2022/11/01 09:43:36;;;;;;;7.63;2.08;;;;;;;18.72;61.33;96853.91;2087813;28;20220;-67
2022/11/01 09:44:42;;;;;;;3.35;1.08;;;;;;;18.46;61.91;96872.53;2094767;28;20199;-70
2022/11/01 09:45:51;;;;;;;4.30;1.00;;;;;;;18.37;62.12;96855.56;2094480;28;20591;-70
2022/11/01 09:47:00;;;;;;;8.32;1.02;;;;;;;18.50;62.76;96883.72;2104533;28;20198;-70
2022/11/01 09:48:05;;;;;;;4.55;1.30;;;;;;;18.34;62.59;96884.00;2100807;28;20198;-70
2022/11/01 09:49:08;;;;;;;3.35;1.00;;;;;;;17.94;62.72;96885.91;2087823;28;20841;-68
2022/11/01 09:50:25;;;;;;;5.13;1.48;;;;;;;17.44;63.98;96888.44;2088447;28;20197;-69
2022/11/01 09:51:29;;;;;;;5.22;1.15;;;;;;;17.39;64.69;96884.44;2088757;28;20692;-70
2022/11/01 09:52:31;;;;;;;3.50;1.00;;;;;;;17.62;64.74;96888.97;2087993;28;20228;-69
2022/11/01 09:59:02;;;;;;;2.50;0.90;;;;;;;16.87;66.55;96901.94;2085786;28;20601;-70
2022/11/01 10:00:12;;;;;;;3.03;1.10;;;;;;;16.58;66.98;96894.13;2086957;28;20698;-69
2022/11/01 10:01:37;;;;;;;4.65;1.25;;;;;;;16.63;67.18;96908.72;2088052;28;20648;-70
2022/11/01 10:03:06;;;;;;;4.35;1.58;;;;;;;16.72;67.10;96902.00;2087462;28;20200;-69
2022/11/01 10:04:26;;;;;;;6.47;1.00;;;;;;;16.54;66.78;96908.47;2087164;28;20228;-69
2022/11/01 10:23:49;;;;;;;4.47;1.30;;;;;;;16.06;68.73;96916.75;2081491;28;20213;-69
2022/11/01 10:25:00;;;;;;;2.45;1.00;;;;;;;16.02;69.22;96920.53;2082560;28;20626;-69
2022/11/01 10:26:03;;;;;;;9.40;1.50;;;;;;;15.99;69.42;96916.31;2080545;28;20237;-70
2022/11/01 10:27:13;;;;;;;4.90;1.33;;;;;;;16.06;69.51;96917.63;2082548;28;20726;-69
2022/11/01 10:28:24;;;;;;;3.22;1.17;;;;;;;16.03;69.24;96914.34;2082628;28;20252;-69
2022/11/01 10:36:12;;;;;;;12.00;1.75;;;;;;;16.41;67.77;96911.88;2080993;28;20612;-68
2022/11/01 10:37:24;;;;;;;4.05;1.20;;;;;;;16.29;67.29;96924.06;2080775;28;20236;-68
2022/11/01 10:38:34;;;;;;;6.50;1.00;;;;;;;16.45;67.04;96915.19;2080261;28;20759;-68
2022/11/01 10:40:02;;;;;;;5.20;1.45;;;;;;;16.50;66.97;96886.72;2077024;28;20777;-67
2022/11/01 10:48:00;;;;;;;3.78;1.10;;;;;;;16.13;66.81;96905.75;2081541;28;20177;-71
2022/11/01 10:49:05;;;;;;;2.25;1.20;;;;;;;16.15;67.01;96893.31;2082715;28;20199;-71
2022/11/01 10:50:22;;;;;;;4.45;1.17;;;;;;;16.64;65.82;96918.31;2083305;28;20561;-72
2022/11/01 10:51:27;;;;;;;4.13;1.20;;;;;;;16.54;65.08;96887.38;2082381;28;20235;-71
2022/11/01 10:52:34;;;;;;;5.70;1.60;;;;;;;17.02;64.27;96897.47;2081272;28;20755;-72
2022/11/01 10:53:51;;;;;;;7.68;1.90;;;;;;;17.28;63.16;96903.63;2080202;28;20229;-80
2022/11/01 10:54:55;;;;;;;11.30;1.45;;;;;;;17.72;62.31;96897.09;2080745;28;20200;-72
2022/11/01 10:56:01;;;;;;;7.68;1.40;;;;;;;18.19;61.50;96892.06;2081549;28;20227;-72
2022/11/01 10:57:08;;;;;;;4.07;1.60;;;;;;;18.33;59.91;96904.28;2081932;28;20239;-71
2022/11/01 10:58:17;;;;;;;3.17;1.20;;;;;;;18.73;59.36;96906.69;2081264;28;20293;-73
2022/11/01 10:59:23;;;;;;;4.47;1.20;;;;;;;19.25;58.76;96915.22;2085350;28;20296;-72
2022/11/01 11:00:25;;;;;;;6.10;1.10;;;;;;;19.82;57.75;96896.81;2082074;28;20716;-72
2022/11/01 11:01:34;;;;;;;4.93;1.10;;;;;;;20.29;55.33;96901.94;2082099;28;20739;-72
2022/11/01 11:02:41;;;;;;;4.78;1.35;;;;;;;20.20;55.04;96915.94;2080950;28;20204;-72
2022/11/01 11:03:45;;;;;;;4.72;1.27;;;;;;;20.46;54.29;96899.75;2073812;28;20226;-72
2022/11/01 11:04:48;;;;;;;3.10;1.30;;;;;;;20.50;54.45;96894.06;2080079;28;20407;-72
2022/11/01 11:22:06;;;;;;;4.28;1.10;;;;;;;19.25;56.61;96911.72;2080291;28;20227;-71
2022/11/01 11:23:11;;;;;;;4.75;1.33;;;;;;;19.02;57.17;96895.78;2079693;28;20197;-71
2022/11/01 11:24:35;;;;;;;8.85;1.08;;;;;;;18.44;59.09;96908.81;2081699;28;20208;-72
2022/11/01 11:25:37;;;;;;;3.22;1.10;;;;;;;18.18;59.50;96919.47;2081746;28;20248;-72
2022/11/01 11:26:39;;;;;;;7.45;1.65;;;;;;;17.90;60.33;96910.81;2081537;28;20575;-72
2022/11/01 11:27:49;;;;;;;4.60;1.10;;;;;;;17.52;61.19;96898.50;2079853;28;20216;-71
2022/11/01 11:28:54;;;;;;;5.72;1.55;;;;;;;17.44;62.16;96914.81;2071210;28;20287;-72
2022/11/01 11:30:07;;;;;;;7.68;1.48;;;;;;;17.26;62.44;96901.09;2082474;28;20221;-71
2022/11/01 11:31:21;;;;;;;3.78;1.35;;;;;;;17.86;60.56;96926.97;2088241;28;20263;-72
2022/11/01 11:32:31;;;;;;;9.73;1.77;;;;;;;17.58;61.61;96920.97;2086960;28;20286;-71
2022/11/01 11:33:33;;;;;;;8.48;1.65;;;;;;;17.19;63.12;96901.63;2080796;28;20300;-71
2022/11/01 11:34:37;;;;;;;7.65;3.85;;;;;;;17.25;63.15;96917.03;2080697;28;20288;-72
2022/11/01 11:35:39;;;;;;;5.22;1.88;;;;;;;17.19;62.17;96912.16;2083503;28;20200;-71
2022/11/01 11:36:48;;;;;;;13.30;2.42;;;;;;;16.89;62.87;96927.25;2083351;28;20240;-71
2022/11/01 11:37:49;;;;;;;4.90;1.45;;;;;;;17.00;63.35;96923.09;2083933;28;20197;-71
2022/11/01 11:38:51;;;;;;;6.18;1.25;;;;;;;16.97;63.34;96919.72;2080653;28;20699;-72
2022/11/01 11:40:14;;;;;;;6.22;1.23;;;;;;;17.08;63.04;96926.94;2091844;28;20250;-71
2022/11/01 11:41:37;;;;;;;7.82;2.05;;;;;;;17.11;63.24;96916.16;2085846;28;20204;-71
2022/11/01 11:42:39;;;;;;;5.45;1.73;;;;;;;17.24;65.16;96925.91;2082548;28;20201;-72
2022/11/01 11:43:41;;;;;;;8.35;2.13;;;;;;;17.09;67.16;96930.41;2082383;28;20255;-71
2022/11/01 11:44:45;;;;;;;6.55;1.50;;;;;;;16.90;68.38;96925.47;2082499;28;20204;-71
2022/11/01 11:46:14;;;;;;;4.55;1.25;;;;;;;16.67;68.87;96932.25;2088165;28;20220;-71
2022/11/01 11:47:18;;;;;;;8.80;1.30;;;;;;;17.18;68.47;96921.88;2084605;28;20300;-71
2022/11/01 11:48:22;;;;;;;6.75;1.42;;;;;;;17.19;68.28;96920.94;2081018;28;20263;-71
2022/11/01 11:49:26;;;;;;;7.38;1.35;;;;;;;16.98;69.46;96928.50;2082031;28;20313;-72
2022/11/01 11:50:33;;;;;;;7.07;1.73;;;;;;;16.53;70.13;96930.50;2079908;28;20283;-72
2022/11/01 11:51:36;;;;;;;16.00;1.10;;;;;;;16.59;70.09;96928.31;2082085;28;20196;-71
2022/11/01 11:52:38;;;;;;;11.85;1.65;;;;;;;16.98;69.33;96931.13;2088860;28;20201;-72
2022/11/01 11:53:40;;;;;;;3.75;1.02;;;;;;;17.25;68.56;96920.50;2081430;28;20228;-71
2022/11/01 11:54:42;;;;;;;5.50;1.20;;;;;;;17.09;68.56;96925.97;2081153;28;20239;-72
2022/11/01 11:55:56;;;;;;;9.15;2.22;;;;;;;16.77;69.44;96917.50;2082785;28;20220;-72
2022/11/01 11:57:10;;;;;;;7.65;2.10;;;;;;;16.92;69.07;96928.88;2079986;28;20205;-72
2022/11/01 12:05:05;;;;;;;13.70;6.32;;;;;;;17.23;67.61;96898.69;2081478;28;20245;-72
2022/11/01 12:06:18;;;;;;;10.45;5.32;;;;;;;17.53;66.96;96931.00;2079316;28;20245;-72
2022/11/01 12:07:26;;;;;;;8.43;2.78;;;;;;;16.83;68.87;96934.75;2079053;28;20201;-72
2022/11/01 12:08:51;;;;;;;6.38;1.88;;;;;;;16.41;70.47;96935.59;2079924;28;20267;-72
2022/11/01 12:09:53;;;;;;;9.27;1.85;;;;;;;16.66;70.11;96931.41;2080535;28;20667;-71
2022/11/01 12:10:58;;;;;;;6.80;3.03;;;;;;;16.74;69.06;96939.66;2082243;28;20200;-72
2022/11/01 12:12:14;;;;;;;7.72;4.15;;;;;;;16.83;68.87;96932.09;2081860;28;20196;-72
2022/11/01 12:13:36;;;;;;;10.55;2.97;;;;;;;16.45;69.63;96946.81;2080070;28;20227;-73
2022/11/01 12:14:38;;;;;;;7.70;1.45;;;;;;;16.24;70.33;96918.25;2080145;28;20201;-73
2022/11/01 12:15:39;;;;;;;7.57;2.80;;;;;;;16.09;70.75;96933.22;2080461;28;20299;-73
2022/11/01 12:16:42;;;;;;;8.68;1.65;;;;;;;16.08;70.70;96935.97;2087064;28;20196;-73
2022/11/01 12:17:45;;;;;;;8.15;2.08;;;;;;;15.83;71.54;96937.47;2088014;28;20195;-73
2022/11/01 12:18:56;;;;;;;6.97;1.23;;;;;;;15.68;72.23;96933.97;2097015;28;20227;-73
2022/11/01 12:20:08;;;;;;;7.53;1.70;;;;;;;15.57;72.14;96931.97;2094612;28;20321;-73
2022/11/01 12:21:17;;;;;;;13.32;1.73;;;;;;;15.45;73.13;96927.44;2082440;28;20201;-73
2022/11/01 12:29:31;;;;;;;4.70;1.10;;;;;;;16.62;69.92;96932.53;2080988;28;20705;-72
2022/11/01 12:30:38;;;;;;;12.90;2.95;;;;;;;16.79;68.91;96936.72;2080666;28;20280;-72
2022/11/01 12:31:42;;;;;;;10.85;2.15;;;;;;;16.94;68.10;96927.00;2082882;28;20208;-72
2022/11/01 12:32:50;;;;;;;11.70;2.53;;;;;;;16.94;67.66;96925.19;2080290;28;20292;-73
2022/11/01 12:34:09;;;;;;;9.65;2.33;;;;;;;16.81;68.44;96930.41;2073015;28;20353;-72
2022/11/01 12:35:37;;;;;;;8.57;1.63;;;;;;;16.00;70.20;96915.38;2072977;28;20225;-72
2022/11/01 12:36:47;;;;;;;6.85;1.40;;;;;;;16.44;69.95;96931.94;2068407;28;20296;-72
2022/11/01 12:37:58;;;;;;;7.90;1.50;;;;;;;15.98;70.32;96925.13;2073544;28;20197;-72
2022/11/01 12:39:22;;;;;;;3.95;1.40;;;;;;;16.03;71.00;96938.88;2074809;28;20256;-72
2022/11/01 12:40:32;;;;;;;8.05;1.77;;;;;;;16.16;70.04;96916.09;2073353;28;20209;-72
2022/11/01 12:41:43;;;;;;;5.38;1.75;;;;;;;16.22;70.70;96937.72;2079595;28;20239;-72
2022/11/01 12:42:56;;;;;;;8.15;1.55;;;;;;;16.39;70.38;96944.56;2078572;28;20243;-72
2022/11/01 12:44:19;;;;;;;8.82;2.13;;;;;;;16.11;70.97;96927.84;2071976;28;20244;-72
2022/11/01 12:45:30;;;;;;;8.88;1.45;;;;;;;16.32;70.25;96936.19;2071274;28;20233;-72
2022/11/01 12:46:46;;;;;;;14.50;2.65;;;;;;;16.40;69.77;96933.06;2072848;28;20291;-72
2022/11/01 12:47:55;;;;;;;12.60;1.55;;;;;;;16.37;70.27;96926.22;2072608;28;20653;-72
2022/11/01 12:49:15;;;;;;;9.02;1.42;;;;;;;15.81;71.21;96920.91;2072292;28;20296;-72
2022/11/01 12:50:23;;;;;;;8.43;1.73;;;;;;;15.86;70.37;96937.28;2072498;28;20233;-72
2022/11/01 12:57:03;;;;;;;8.01;1.77;;;;;;;16.37;70.63;96939.41;4263309;27;20423;-72
2022/11/01 12:58:20;;;;;;;11.23;2.33;;;;;;;16.57;69.99;96922.31;2087770;28;20559;-71
2022/11/01 12:59:31;;;;;;;6.03;2.08;;;;;;;16.42;69.66;96921.50;2082013;28;20205;-72
2022/11/01 13:00:47;;;;;;;7.57;2.63;;;;;;;16.58;69.60;96938.97;2082968;28;20645;-72
2022/11/01 13:02:03;;;;;;;4.70;2.33;;;;;;;17.23;67.95;96934.75;2082856;28;20258;-72
2022/11/01 13:03:20;;;;;;;10.73;2.30;;;;;;;18.34;63.72;96937.72;2078483;28;20613;-71
2022/11/01 13:04:38;;;;;;;6.38;2.10;;;;;;;18.60;63.67;96921.75;2080784;28;20651;-72
2022/11/01 13:05:45;;;;;;;4.35;1.50;;;;;;;19.37;61.92;96945.19;2082114;28;20302;-72
2022/11/01 13:07:02;;;;;;;9.18;2.22;;;;;;;20.33;59.40;96937.84;2081194;28;20192;-72
2022/11/01 13:08:11;;;;;;;5.32;2.03;;;;;;;20.47;58.63;96918.19;2081157;28;20223;-72
2022/11/01 13:09:20;;;;;;;6.03;1.90;;;;;;;20.79;57.26;96895.34;2082055;28;20777;-73
2022/11/01 13:10:34;;;;;;;10.93;1.80;;;;;;;21.10;56.52;96909.56;2083205;28;20217;-73
2022/11/01 13:12:03;;;;;;;8.73;2.00;;;;;;;21.35;55.42;96918.97;2082327;28;20204;-73
2022/11/01 13:13:43;;;;;;;5.32;1.65;;;;;;;21.21;55.52;96921.94;2097087;28;20198;-72
2022/11/01 13:21:31;;;;;;;4.70;1.75;;;;;;;18.05;63.47;96935.31;2074629;28;20322;-74
2022/11/01 13:22:44;;;;;;;5.35;1.70;;;;;;;17.42;64.72;96937.00;2074717;28;20225;-74
2022/11/01 13:23:53;;;;;;;3.78;1.30;;;;;;;17.25;65.15;96932.88;2075614;28;20263;-74
2022/11/01 13:25:03;;;;;;;5.00;1.30;;;;;;;16.80;66.58;96889.16;2070924;28;20229;-74
2022/11/01 13:26:34;;;;;;;7.68;1.50;;;;;;;17.16;66.86;96939.59;2071125;28;20220;-74
2022/11/01 13:27:44;;;;;;;6.75;1.50;;;;;;;17.43;66.16;96922.84;2066299;28;20217;-77
2022/11/01 13:28:46;;;;;;;7.57;2.28;;;;;;;17.24;66.58;96928.53;2070411;28;21270;-74
2022/11/01 13:30:02;;;;;;;6.47;1.63;;;;;;;17.16;66.92;96926.41;2076290;28;20252;-74
2022/11/01 13:31:14;;;;;;;10.73;1.75;;;;;;;17.22;66.66;96923.38;2076331;28;20781;-74
2022/11/01 13:32:34;;;;;;;5.57;1.50;;;;;;;16.85;67.27;96919.66;2073253;28;20285;-74
2022/11/01 13:33:57;;;;;;;5.80;2.58;;;;;;;17.76;64.84;96911.78;2074184;28;20789;-74
2022/11/01 13:35:27;;;;;;;8.98;2.47;;;;;;;18.20;63.99;96922.84;2073843;28;20205;-74
2022/11/01 13:36:35;;;;;;;8.75;1.75;;;;;;;17.70;63.58;96920.13;2073457;28;20282;-74
2022/11/01 13:38:02;;;;;;;9.07;3.20;;;;;;;17.67;64.85;96917.69;2073735;28;20300;-74
2022/11/01 13:39:32;;;;;;;8.60;2.67;;;;;;;17.28;65.26;96916.81;2076125;28;20229;-74
2022/11/01 13:40:45;;;;;;;8.13;1.67;;;;;;;17.30;65.74;96917.56;2074416;28;20218;-74
2022/11/01 13:42:04;;;;;;;13.98;3.08;;;;;;;17.45;65.70;96924.44;2070952;28;20420;-74
2022/11/01 13:43:34;;;;;;;7.47;2.95;;;;;;;17.30;65.88;96920.22;2070226;28;20288;-74
2022/11/01 13:44:58;;;;;;;15.85;5.35;;;;;;;17.63;64.87;96913.56;2079559;28;20209;-74
2022/11/01 13:51:23;;;;;;;6.50;1.60;;;;;;;18.50;63.08;96924.25;2074253;28;20178;-74
2022/11/01 13:52:27;;;;;;;6.93;2.45;;;;;;;18.47;62.76;96894.53;2053146;28;20207;-74
2022/11/01 13:53:35;;;;;;;8.00;2.60;;;;;;;19.66;60.13;96925.41;2069554;28;20229;-74
2022/11/01 13:54:46;;;;;;;10.40;2.38;;;;;;;19.27;59.83;96888.63;2091176;28;20247;-74
2022/11/01 13:56:02;;;;;;;6.97;2.10;;;;;;;19.75;59.91;96925.53;2087448;28;20564;-74
2022/11/01 13:57:11;;;;;;;5.75;2.47;;;;;;;20.75;57.02;96917.78;2081357;28;20201;-74
2022/11/01 13:58:18;;;;;;;4.97;1.90;;;;;;;19.53;58.37;96922.88;2078065;28;20674;-74
2022/11/01 13:59:28;;;;;;;8.23;2.42;;;;;;;19.84;58.63;96924.00;2072661;28;20592;-74
2022/11/01 14:00:45;;;;;;;6.32;1.33;;;;;;;20.12;57.33;96921.84;2071842;28;20288;-74
2022/11/01 14:01:49;;;;;;;4.30;1.67;;;;;;;20.50;56.84;96922.41;2074736;28;20247;-74
2022/11/01 14:02:57;;;;;;;3.78;1.30;;;;;;;20.29;57.14;96912.56;2074885;28;20201;-75
2022/11/01 14:27:25;;;;;;;16.55;7.55;;;;;;;17.51;65.00;96917.91;2069187;28;20182;-75
2022/11/01 14:28:29;;;;;;;7.65;1.65;;;;;;;17.35;65.18;96904.91;2069275;28;20697;-75
2022/11/01 14:29:34;;;;;;;6.30;3.00;;;;;;;17.31;65.13;96911.34;2068679;28;20280;-75
2022/11/01 14:30:42;;;;;;;11.23;5.22;;;;;;;16.79;67.14;96932.28;2070420;28;20229;-75
2022/11/01 14:31:51;;;;;;;13.70;4.70;;;;;;;16.68;67.46;96928.66;2068782;28;21257;-75
2022/11/01 14:32:56;;;;;;;10.13;4.38;;;;;;;16.75;67.38;96929.97;2084387;28;20491;-74
2022/11/01 14:34:00;;;;;;;10.15;5.07;;;;;;;16.65;67.95;96929.72;2077355;28;20223;-74
2022/11/01 14:35:12;;;;;;;13.65;3.70;;;;;;;16.51;67.64;96916.59;2077779;28;20228;-74
2022/11/01 14:36:18;;;;;;;14.07;3.63;;;;;;;15.84;68.95;96899.66;2080987;28;20303;-74
2022/11/01 14:37:27;;;;;;;16.33;3.95;;;;;;;16.06;69.27;96940.47;2085889;28;20196;-74
2022/11/01 14:38:40;;;;;;;7.88;3.78;;;;;;;15.95;69.92;96941.16;2079872;28;20267;-74
2022/11/01 14:51:11;;;;;;;8.13;3.33;;;;;;;14.94;73.15;96944.41;2069442;28;20170;-74
2022/11/01 14:52:23;;;;;;;8.85;3.95;;;;;;;14.77;72.82;96916.47;2064835;28;20594;-74
2022/11/01 14:53:33;;;;;;;7.07;3.75;;;;;;;14.78;73.24;96930.44;2065862;28;20226;-74
2022/11/01 14:54:58;;;;;;;15.20;5.45;;;;;;;15.16;72.39;96951.03;2080355;28;20247;-74
2022/11/01 14:56:14;;;;;;;18.70;10.10;;;;;;;15.19;72.15;96948.25;2076655;28;20205;-74
2022/11/01 14:57:27;;;;;;;11.68;5.80;;;;;;;15.24;71.61;96916.44;2068291;28;20202;-74
2022/11/01 14:58:30;;;;;;;11.80;2.10;;;;;;;15.33;71.17;96931.66;2066312;28;20330;-74
2022/11/01 14:59:31;;;;;;;5.90;1.63;;;;;;;15.03;72.82;96943.03;2083957;28;20256;-74
2022/11/01 15:00:33;;;;;;;11.93;2.50;;;;;;;14.72;73.92;96942.16;2080071;28;20240;-74
2022/11/01 15:01:43;;;;;;;11.20;2.03;;;;;;;14.75;73.65;96938.50;2066647;28;20680;-74
2022/11/01 15:02:44;;;;;;;13.68;1.80;;;;;;;15.05;72.73;96940.31;2067491;28;20198;-74
2022/11/01 15:03:57;;;;;;;8.40;1.73;;;;;;;15.23;72.24;96944.50;2066981;28;20229;-74
2022/11/01 15:05:00;;;;;;;6.97;1.98;;;;;;;15.36;71.88;96939.34;2068063;28;20226;-74
2022/11/01 15:06:03;;;;;;;6.47;1.48;;;;;;;15.51;71.42;96949.00;2066457;28;20213;-74
2022/11/01 15:07:39;;;;;;;8.52;1.55;;;;;;;15.30;71.82;96943.22;2066195;28;20288;-73
2022/11/01 15:08:40;;;;;;;6.95;1.55;;;;;;;14.95;72.56;96930.31;2066778;28;20229;-74
2022/11/01 15:10:00;;;;;;;9.32;2.08;;;;;;;14.94;73.65;96944.41;2067894;28;20853;-74
2022/11/01 15:11:03;;;;;;;5.70;1.48;;;;;;;15.23;72.56;96956.81;2068309;28;20896;-74
2022/11/01 15:12:08;;;;;;;7.10;1.65;;;;;;;15.37;71.73;96948.09;2067295;28;20688;-74
2022/11/01 15:13:14;;;;;;;8.00;2.25;;;;;;;15.53;71.32;96946.25;2067993;28;20228;-75
2022/11/01 15:14:21;;;;;;;6.97;2.05;;;;;;;15.72;70.87;96953.91;2068609;28;20198;-74
2022/11/01 15:15:26;;;;;;;7.60;2.10;;;;;;;16.27;69.72;96944.38;2068132;28;20289;-74
2022/11/01 15:16:28;;;;;;;7.18;2.10;;;;;;;16.74;68.15;96941.47;2068769;28;20658;-74
2022/11/01 15:17:33;;;;;;;5.72;1.80;;;;;;;17.23;66.80;96945.31;2067072;28;20686;-74
2022/11/01 15:18:40;;;;;;;8.77;2.83;;;;;;;17.68;65.26;96919.38;2070646;28;20253;-74
2022/11/01 15:19:44;;;;;;;10.77;2.78;;;;;;;18.09;63.76;96928.03;2067727;28;20226;-74
2022/11/01 15:20:53;;;;;;;7.50;3.10;;;;;;;18.21;64.31;96939.56;2067356;28;20297;-74
2022/11/01 15:22:02;;;;;;;8.18;1.75;;;;;;;18.00;63.94;96937.44;2069218;28;20205;-74
2022/11/01 15:23:10;;;;;;;7.93;2.33;;;;;;;17.70;63.39;96920.13;2067010;28;20321;-74
2022/11/01 15:24:23;;;;;;;5.18;1.80;;;;;;;17.41;64.59;96938.81;2067334;28;20624;-74
2022/11/01 15:25:25;;;;;;;9.90;1.63;;;;;;;17.56;64.78;96931.66;2069060;28;20285;-74
2022/11/01 15:26:30;;;;;;;4.53;1.60;;;;;;;17.55;64.73;96913.28;2064557;28;20202;-74
